Time;durP1;ratioP1;P1;durP2;ratioP2;P2;SDS_P1;SDS_P2;PMS_P1;PMS_P2;Temp;Humidity;BMP_temperature;BMP_pressure;BME280_temperature;BME280_humidity;BME280_pressure;Samples;Min_cycle;Max_cycle;Signal;HPM_P1;HPM_P2
2022/07/27 00:01:05;;;;;;;5.38;1.17;;;12.70;99.90;;;;;;4936803;29;20024;-68
2022/07/27 00:03:33;;;;;;;2.38;0.68;;;12.70;99.90;;;;;;4936687;29;20450;-68
2022/07/27 00:06:00;;;;;;;5.03;0.90;;;12.80;99.90;;;;;;4936674;29;20079;-69
2022/07/27 00:08:27;;;;;;;4.95;1.25;;;12.80;99.90;;;;;;4919321;29;20115;-69
2022/07/27 00:10:55;;;;;;;4.22;0.90;;;12.90;99.90;;;;;;4919404;29;20027;-69
2022/07/27 00:13:22;;;;;;;2.92;0.70;;;13.00;99.90;;;;;;4936557;29;20115;-70
2022/07/27 00:15:49;;;;;;;3.20;0.70;;;13.00;99.90;;;;;;4919377;29;20079;-68
2022/07/27 00:18:17;;;;;;;4.65;0.88;;;12.90;99.90;;;;;;4919431;29;20038;-68
2022/07/27 00:20:44;;;;;;;2.92;0.77;;;13.00;99.90;;;;;;4936322;29;20508;-69
2022/07/27 00:23:12;;;;;;;1.98;0.40;;;13.10;99.90;;;;;;4919023;29;20040;-69
2022/07/27 00:25:39;;;;;;;3.42;0.70;;;13.10;99.90;;;;;;4936644;29;20103;-69
2022/07/27 00:28:07;;;;;;;4.43;1.08;;;13.10;99.90;;;;;;4936605;29;20023;-69
2022/07/27 00:30:34;;;;;;;4.00;0.75;;;13.20;99.90;;;;;;4919063;29;20547;-69
2022/07/27 00:33:02;;;;;;;2.55;0.57;;;13.30;99.90;;;;;;4919080;29;20092;-69
2022/07/27 00:35:29;;;;;;;2.42;0.50;;;13.30;99.90;;;;;;4918875;29;20034;-68
2022/07/27 00:37:57;;;;;;;3.25;0.88;;;13.30;99.90;;;;;;4919009;29;20476;-69
2022/07/27 00:40:24;;;;;;;2.40;0.50;;;13.40;99.90;;;;;;4936115;29;20476;-69
2022/07/27 00:42:52;;;;;;;2.75;0.63;;;13.50;99.90;;;;;;4936119;29;20051;-70
2022/07/27 00:45:19;;;;;;;4.40;0.70;;;13.60;99.90;;;;;;4918773;29;20437;-69
2022/07/27 00:47:47;;;;;;;3.65;0.70;;;13.70;99.90;;;;;;4918835;29;20027;-68
2022/07/27 00:50:14;;;;;;;2.70;0.50;;;13.80;99.90;;;;;;4935879;29;20031;-69
2022/07/27 00:52:42;;;;;;;6.55;0.85;;;13.80;99.90;;;;;;4918844;29;20087;-70
2022/07/27 00:55:10;;;;;;;2.33;0.70;;;14.00;99.90;;;;;;4935814;29;20396;-69
2022/07/27 00:57:40;;;;;;;4.32;0.73;;;14.10;99.90;;;;;;4918702;29;20030;-69
2022/07/27 01:00:08;;;;;;;3.22;0.60;;;14.20;99.90;;;;;;4935179;29;20476;-69
2022/07/27 01:02:35;;;;;;;2.75;0.70;;;14.30;99.90;;;;;;4918626;29;20027;-70
2022/07/27 01:05:03;;;;;;;3.40;0.85;;;14.40;99.90;;;;;;4918645;29;20547;-69
2022/07/27 01:07:31;;;;;;;2.00;0.88;;;14.40;99.90;;;;;;4902989;29;20031;-70
2022/07/27 01:09:59;;;;;;;3.50;0.80;;;14.50;99.90;;;;;;4935775;29;20079;-69
2022/07/27 01:12:29;;;;;;;2.08;0.50;;;14.30;99.90;;;;;;4918600;29;20023;-69
2022/07/27 01:14:57;;;;;;;3.15;1.00;;;14.40;99.90;;;;;;4935724;29;20369;-69
2022/07/27 01:17:29;;;;;;;4.45;1.02;;;14.50;99.90;;;;;;4918543;29;20499;-70
2022/07/27 01:19:57;;;;;;;3.58;0.60;;;14.40;99.90;;;;;;4918556;29;20035;-70
2022/07/27 01:22:25;;;;;;;2.08;0.60;;;14.40;99.90;;;;;;4918171;29;20035;-70
2022/07/27 01:24:53;;;;;;;2.88;0.60;;;14.50;99.90;;;;;;4918657;29;20063;-70
2022/07/27 01:27:20;;;;;;;2.67;0.80;;;14.50;99.70;;;;;;4918379;29;20027;-69
2022/07/27 01:29:48;;;;;;;2.78;0.98;;;14.80;99.90;;;;;;4918470;29;20115;-69
2022/07/27 01:32:15;;;;;;;2.28;0.70;;;14.80;99.90;;;;;;4935545;29;20043;-70
2022/07/27 01:34:42;;;;;;;2.50;0.55;;;14.90;99.70;;;;;;4935553;29;20027;-70
2022/07/27 01:37:10;;;;;;;3.83;0.68;;;14.90;99.20;;;;;;4918361;29;20547;-71
2022/07/27 01:39:37;;;;;;;3.10;0.70;;;14.90;99.80;;;;;;4918286;29;20046;-71
2022/07/27 01:42:05;;;;;;;3.25;0.82;;;15.00;99.30;;;;;;4935485;29;20400;-70
2022/07/27 01:44:32;;;;;;;2.35;0.73;;;15.10;99.10;;;;;;4918218;29;20472;-70
2022/07/27 01:46:59;;;;;;;3.65;0.82;;;15.10;99.30;;;;;;4935933;29;20027;-70
2022/07/27 01:49:27;;;;;;;4.30;0.70;;;15.10;98.90;;;;;;4918201;29;20036;-70
2022/07/27 01:51:54;;;;;;;5.85;0.95;;;15.20;98.30;;;;;;4935286;29;20082;-70
2022/07/27 01:54:22;;;;;;;4.53;0.82;;;15.30;98.70;;;;;;4918172;29;20052;-69
2022/07/27 01:56:50;;;;;;;2.88;0.70;;;15.50;99.30;;;;;;4918089;29;20477;-68
2022/07/27 01:59:17;;;;;;;3.92;0.75;;;15.40;97.50;;;;;;4935247;29;20024;-69
2022/07/27 02:01:46;;;;;;;5.18;0.90;;;15.50;99.10;;;;;;4917963;29;20499;-69
2022/07/27 02:04:13;;;;;;;4.45;0.93;;;15.60;99.90;;;;;;4935323;29;20499;-70
2022/07/27 02:06:40;;;;;;;4.07;1.00;;;15.70;98.00;;;;;;4935331;29;20032;-70
2022/07/27 02:09:08;;;;;;;4.20;0.80;;;16.10;98.50;;;;;;4935381;29;20036;-69
2022/07/27 02:14:20;;;;;;;3.40;0.68;;;16.10;97.90;;;;;;4938977;29;20138;-69
2022/07/27 02:16:48;;;;;;;2.80;0.75;;;16.00;97.40;;;;;;4938617;29;20496;-69
2022/07/27 02:19:15;;;;;;;3.05;0.55;;;15.90;97.10;;;;;;4921549;29;20389;-69
2022/07/27 02:21:42;;;;;;;2.63;0.70;;;16.00;97.30;;;;;;4938837;29;20020;-70
2022/07/27 02:24:10;;;;;;;4.20;0.90;;;16.00;97.30;;;;;;4921231;29;20135;-70
2022/07/27 02:26:37;;;;;;;4.07;1.10;;;16.20;96.90;;;;;;4938681;29;20036;-71
2022/07/27 02:29:04;;;;;;;4.35;0.90;;;16.20;97.40;;;;;;4938816;29;20050;-70
2022/07/27 02:31:32;;;;;;;5.22;1.48;;;16.10;97.20;;;;;;4938993;29;20059;-71
2022/07/27 02:33:59;;;;;;;5.13;0.73;;;16.20;97.30;;;;;;4921534;29;20063;-71
2022/07/27 02:36:30;;;;;;;4.85;1.23;;;16.10;96.80;;;;;;4921316;29;20055;-69
2022/07/27 02:38:57;;;;;;;3.80;1.00;;;16.10;97.50;;;;;;4921413;29;20030;-69
2022/07/27 02:41:25;;;;;;;7.57;1.25;;;16.30;97.40;;;;;;4939294;29;20031;-69
2022/07/27 02:43:52;;;;;;;4.40;0.75;;;16.30;97.20;;;;;;4938513;29;20396;-70
2022/07/27 02:46:19;;;;;;;1.95;0.60;;;16.40;98.00;;;;;;4921080;29;20473;-69
2022/07/27 02:48:47;;;;;;;3.75;1.15;;;16.60;97.20;;;;;;4938287;29;20483;-69
2022/07/27 02:51:14;;;;;;;4.82;1.05;;;16.70;96.60;;;;;;4920970;29;20044;-70
2022/07/27 02:53:42;;;;;;;3.22;0.60;;;16.70;96.40;;;;;;4920816;29;20039;-70
2022/07/27 02:56:09;;;;;;;4.90;1.20;;;16.50;95.40;;;;;;4938168;29;20106;-70
2022/07/27 02:58:37;;;;;;;2.00;0.80;;;16.50;96.40;;;;;;4920889;29;20551;-71
2022/07/27 03:01:05;;;;;;;3.92;1.08;;;16.60;96.30;;;;;;4938028;29;20027;-70
2022/07/27 03:03:33;;;;;;;1.92;0.70;;;16.70;96.40;;;;;;4920777;29;20020;-71
2022/07/27 03:06:00;;;;;;;2.67;0.70;;;16.90;96.40;;;;;;4938047;29;20420;-70
2022/07/27 03:08:27;;;;;;;2.67;0.90;;;17.00;96.00;;;;;;4920966;29;20094;-71
2022/07/27 03:10:54;;;;;;;4.93;0.80;;;17.00;96.40;;;;;;4937980;29;20106;-71
2022/07/27 03:13:22;;;;;;;3.33;1.02;;;17.10;96.10;;;;;;4938274;29;20345;-71
2022/07/27 03:15:49;;;;;;;1.83;0.80;;;17.10;97.00;;;;;;4920867;29;20034;-71
2022/07/27 03:18:16;;;;;;;3.35;0.82;;;17.10;95.70;;;;;;4920925;29;20024;-71
2022/07/27 03:20:44;;;;;;;4.03;0.70;;;17.10;95.70;;;;;;4937833;29;20124;-70
2022/07/27 03:23:11;;;;;;;2.50;0.55;;;17.00;95.50;;;;;;4919679;29;20055;-69
2022/07/27 03:25:39;;;;;;;2.75;0.60;;;17.10;95.90;;;;;;4937866;29;20103;-70
2022/07/27 03:28:07;;;;;;;2.40;0.70;;;17.20;96.50;;;;;;4920391;29;20032;-70
2022/07/27 03:30:34;;;;;;;2.58;0.90;;;17.40;95.50;;;;;;4920043;29;20031;-70
2022/07/27 03:33:02;;;;;;;3.20;1.05;;;17.40;96.10;;;;;;4937557;29;20024;-69
2022/07/27 03:35:29;;;;;;;2.00;0.75;;;17.40;94.90;;;;;;4920009;29;20536;-70
2022/07/27 03:37:56;;;;;;;3.38;0.88;;;17.50;95.40;;;;;;4937161;29;20458;-71
2022/07/27 03:40:24;;;;;;;2.90;0.82;;;17.40;96.00;;;;;;4937189;29;20055;-70
2022/07/27 03:42:51;;;;;;;3.83;0.98;;;17.50;96.10;;;;;;4937108;29;20031;-73
2022/07/27 03:45:20;;;;;;;4.90;1.00;;;17.40;95.20;;;;;;4919841;29;20027;-70
2022/07/27 03:47:50;;;;;;;2.47;0.88;;;17.40;95.10;;;;;;4936988;29;20099;-71
2022/07/27 03:50:18;;;;;;;3.08;0.70;;;17.60;95.40;;;;;;4919791;29;20066;-72
2022/07/27 03:52:45;;;;;;;3.88;0.80;;;17.60;94.90;;;;;;4919902;29;20031;-70
2022/07/27 03:55:13;;;;;;;3.35;0.73;;;17.60;95.10;;;;;;4936941;29;20094;-71
2022/07/27 03:57:40;;;;;;;2.97;0.50;;;17.50;95.10;;;;;;4936817;29;20333;-72
2022/07/27 04:00:12;;;;;;;3.60;1.02;;;17.40;95.60;;;;;;4936292;29;20024;-70
2022/07/27 04:02:43;;;;;;;2.28;0.60;;;17.40;95.40;;;;;;4937122;29;20024;-70
2022/07/27 04:05:10;;;;;;;;;;;17.50;95.20;;;;;;4919908;29;20032;-72
2022/07/27 04:07:38;;;;;;;3.92;0.63;;;17.60;96.00;;;;;;4919526;29;19907;-71
2022/07/27 04:10:07;;;;;;;3.05;0.80;;;17.70;95.60;;;;;;4936740;29;20032;-70
2022/07/27 04:12:38;;;;;;;3.25;0.70;;;17.80;95.20;;;;;;4919441;29;20090;-70
2022/07/27 04:15:07;;;;;;;3.88;0.90;;;17.80;94.70;;;;;;4936611;29;20059;-71
2022/07/27 04:17:34;;;;;;;2.03;0.60;;;17.80;95.50;;;;;;4919301;29;20032;-70
2022/07/27 04:20:03;;;;;;;1.38;0.60;;;17.80;95.50;;;;;;4936685;29;20045;-71
2022/07/27 04:22:30;;;;;;;4.25;0.70;;;17.90;95.20;;;;;;4936327;29;20036;-70
2022/07/27 04:24:57;;;;;;;3.13;0.65;;;17.90;95.40;;;;;;4919826;29;20110;-72
2022/07/27 04:27:25;;;;;;;1.60;0.47;;;18.00;95.10;;;;;;4919198;29;20035;-71
2022/07/27 04:29:52;;;;;;;2.65;0.52;;;17.90;94.70;;;;;;4936336;29;20563;-72
2022/07/27 04:32:20;;;;;;;2.13;0.50;;;17.80;94.10;;;;;;4919156;29;20102;-71
2022/07/27 04:34:48;;;;;;;2.35;0.75;;;17.80;94.20;;;;;;4903541;29;20038;-70
2022/07/27 04:37:15;;;;;;;1.67;0.40;;;17.80;94.20;;;;;;4918883;29;20381;-70
2022/07/27 04:39:42;;;;;;;3.35;0.65;;;17.70;94.70;;;;;;4919026;29;20032;-70
2022/07/27 04:42:10;;;;;;;3.05;1.02;;;18.00;95.10;;;;;;4935767;29;20054;-70
2022/07/27 04:44:37;;;;;;;1.98;0.52;;;18.10;95.20;;;;;;4919655;29;20019;-70
2022/07/27 04:47:05;;;;;;;1.70;0.70;;;18.00;94.00;;;;;;4918721;29;20055;-71
2022/07/27 04:49:32;;;;;;;2.80;0.55;;;18.00;95.10;;;;;;4918795;29;20083;-70
2022/07/27 04:52:00;;;;;;;3.67;0.65;;;18.10;94.80;;;;;;4918672;29;20028;-71
2022/07/27 04:54:27;;;;;;;4.10;0.52;;;18.00;94.60;;;;;;4918876;29;20437;-71
2022/07/27 04:56:54;;;;;;;2.90;0.57;;;17.80;94.90;;;;;;4918699;29;20031;-71
2022/07/27 04:59:22;;;;;;;3.35;0.95;;;17.60;94.20;;;;;;4918671;29;20119;-71
2022/07/27 05:01:49;;;;;;;3.28;0.85;;;17.60;94.40;;;;;;4918470;29;20440;-71
2022/07/27 05:04:16;;;;;;;2.63;0.68;;;17.60;94.50;;;;;;4918694;29;20111;-72
2022/07/27 05:06:45;;;;;;;2.33;0.50;;;17.50;95.80;;;;;;4918574;29;20038;-71
2022/07/27 05:09:12;;;;;;;3.15;0.80;;;17.40;95.40;;;;;;4918516;29;20046;-70
2022/07/27 05:11:39;;;;;;;2.50;0.82;;;17.40;94.70;;;;;;4918488;29;20484;-71
2022/07/27 05:14:07;;;;;;;1.92;0.73;;;17.40;94.90;;;;;;4918773;29;20056;-70
2022/07/27 05:16:34;;;;;;;2.78;0.60;;;17.40;94.80;;;;;;4918419;29;20560;-70
2022/07/27 05:19:01;;;;;;;6.07;0.90;;;17.50;94.20;;;;;;4935821;29;20071;-70
2022/07/27 05:21:29;;;;;;;4.05;0.82;;;17.40;94.60;;;;;;4918443;29;20115;-70
2022/07/27 05:23:56;;;;;;;3.38;0.82;;;17.40;94.30;;;;;;4935604;29;20155;-69
2022/07/27 05:26:24;;;;;;;3.88;1.10;;;17.40;94.30;;;;;;4935511;29;20036;-71
2022/07/27 05:28:51;;;;;;;2.40;0.57;;;17.40;94.60;;;;;;4918428;29;20027;-70
2022/07/27 05:31:18;;;;;;;3.40;1.17;;;17.30;95.20;;;;;;4918441;29;20480;-70
2022/07/27 05:33:46;;;;;;;3.10;0.80;;;17.30;95.00;;;;;;4918289;29;20032;-70
2022/07/27 05:36:13;;;;;;;3.53;0.60;;;17.30;94.80;;;;;;4918342;29;20027;-70
2022/07/27 05:38:42;;;;;;;3.70;0.77;;;17.30;94.60;;;;;;4918309;29;20392;-70
2022/07/27 05:41:09;;;;;;;2.33;0.70;;;17.30;94.20;;;;;;4918331;29;20052;-71
2022/07/27 05:43:37;;;;;;;3.55;0.70;;;17.20;93.80;;;;;;4935297;29;20035;-69
2022/07/27 05:46:04;;;;;;;1.65;0.85;;;17.30;93.80;;;;;;4918239;29;20035;-71
2022/07/27 05:48:35;;;;;;;2.88;0.60;;;17.30;93.60;;;;;;4939123;29;20035;-70
2022/07/27 05:51:02;;;;;;;5.32;1.10;;;17.20;93.80;;;;;;4922162;29;20038;-70
2022/07/27 05:53:29;;;;;;;2.47;0.95;;;17.20;94.50;;;;;;4921820;29;20078;-70
2022/07/27 05:55:57;;;;;;;2.90;0.70;;;17.20;94.00;;;;;;4921914;29;20023;-70
2022/07/27 05:58:24;;;;;;;2.40;0.85;;;17.20;94.10;;;;;;4921859;29;20400;-72
2022/07/27 06:00:52;;;;;;;2.30;0.75;;;17.10;95.40;;;;;;4921826;29;20396;-70
2022/07/27 06:03:19;;;;;;;2.88;0.88;;;17.00;94.50;;;;;;4921765;29;20043;-72
2022/07/27 06:05:46;;;;;;;1.92;0.63;;;17.00;93.90;;;;;;4921907;29;20480;-71
2022/07/27 06:08:14;;;;;;;1.85;0.90;;;16.90;94.20;;;;;;4938901;29;20570;-71
2022/07/27 06:10:41;;;;;;;2.83;0.50;;;17.00;94.30;;;;;;4921796;29;20027;-71
2022/07/27 06:13:11;;;;;;;3.75;0.70;;;16.80;94.30;;;;;;4921559;29;20135;-69
2022/07/27 06:15:39;;;;;;;2.20;0.65;;;16.80;94.20;;;;;;4921617;29;20036;-71
2022/07/27 06:18:13;;;;;;;3.28;1.13;;;16.70;94.60;;;;;;4921540;29;20028;-71
2022/07/27 06:20:42;;;;;;;4.10;0.90;;;16.60;95.10;;;;;;4938839;29;20016;-71
2022/07/27 06:23:09;;;;;;;3.50;0.70;;;16.50;95.10;;;;;;4921188;29;20051;-72
2022/07/27 06:25:37;;;;;;;4.10;0.73;;;16.30;96.60;;;;;;4921527;29;20047;-72
2022/07/27 06:28:05;;;;;;;3.25;0.60;;;16.20;96.20;;;;;;4938751;29;20034;-72
2022/07/27 06:30:33;;;;;;;2.78;0.98;;;16.10;96.30;;;;;;4921573;29;20023;-73
2022/07/27 06:33:05;;;;;;;4.25;0.90;;;16.00;96.60;;;;;;4938564;29;20035;-72
2022/07/27 06:35:33;;;;;;;3.88;0.85;;;16.00;96.70;;;;;;4922667;29;20131;-72
2022/07/27 06:38:00;;;;;;;5.28;0.70;;;15.80;97.70;;;;;;4921304;29;20047;-73
2022/07/27 06:40:28;;;;;;;3.75;0.65;;;15.80;97.10;;;;;;4921157;29;20091;-73
2022/07/27 06:42:55;;;;;;;4.65;0.82;;;15.60;97.80;;;;;;4921136;29;20526;-72
2022/07/27 06:45:22;;;;;;;4.65;0.90;;;15.50;98.40;;;;;;4921114;29;20039;-71
2022/07/27 06:47:50;;;;;;;4.55;1.08;;;15.40;98.40;;;;;;4921851;29;20400;-73
2022/07/27 06:50:21;;;;;;;3.45;1.20;;;15.50;98.10;;;;;;4938962;29;20016;-73
2022/07/27 06:52:49;;;;;;;2.08;0.95;;;15.40;97.80;;;;;;4938173;29;20396;-71
2022/07/27 06:55:16;;;;;;;3.28;1.05;;;15.50;98.20;;;;;;4921054;29;20119;-72
2022/07/27 06:57:45;;;;;;;4.50;0.90;;;15.40;98.10;;;;;;4937571;29;20031;-72
2022/07/27 07:00:13;;;;;;;5.40;1.40;;;15.20;98.30;;;;;;4938058;29;20480;-72
2022/07/27 07:02:58;;;;;;;4.28;1.20;;;15.10;98.50;;;;;;4938356;29;20024;-72
2022/07/27 07:05:26;;;;;;;4.05;1.10;;;15.00;98.90;;;;;;4921153;29;20064;-72
2022/07/27 07:07:54;;;;;;;3.67;1.08;;;14.90;99.30;;;;;;4921144;29;20036;-72
2022/07/27 07:10:23;;;;;;;3.75;0.93;;;14.80;99.00;;;;;;4938208;29;20520;-72
2022/07/27 07:12:54;;;;;;;4.32;0.82;;;14.70;99.10;;;;;;4920971;29;20031;-72
2022/07/27 07:15:25;;;;;;;5.25;1.15;;;14.60;99.70;;;;;;4920761;29;20027;-72
2022/07/27 07:17:53;;;;;;;2.22;0.77;;;14.60;99.70;;;;;;4937818;29;20028;-73
2022/07/27 07:20:21;;;;;;;3.05;0.80;;;14.50;99.40;;;;;;4920981;29;20024;-75
2022/07/27 07:22:48;;;;;;;3.03;1.20;;;14.50;99.80;;;;;;4937844;29;20051;-75
2022/07/27 07:25:16;;;;;;;4.20;0.85;;;14.40;99.60;;;;;;4920862;29;20115;-75
2022/07/27 07:27:44;;;;;;;4.05;1.05;;;14.30;99.90;;;;;;4920811;29;20492;-75
2022/07/27 07:30:11;;;;;;;3.47;1.05;;;14.20;99.90;;;;;;4937695;29;20070;-75
2022/07/27 07:32:39;;;;;;;3.45;0.85;;;14.20;99.90;;;;;;4920583;29;20396;-76
2022/07/27 07:35:07;;;;;;;3.78;1.08;;;14.10;99.90;;;;;;4937398;29;20074;-76
2022/07/27 07:37:35;;;;;;;3.97;1.05;;;14.00;99.90;;;;;;4920257;29;20062;-76
2022/07/27 07:40:04;;;;;;;4.53;1.30;;;13.90;99.90;;;;;;4937785;29;20023;-76
2022/07/27 07:42:32;;;;;;;3.38;1.23;;;13.90;99.90;;;;;;4920737;29;20035;-76
2022/07/27 07:44:59;;;;;;;5.28;1.00;;;13.80;99.90;;;;;;4937638;29;20027;-76
2022/07/27 07:47:26;;;;;;;5.05;1.40;;;13.70;99.90;;;;;;4937986;29;20038;-77
2022/07/27 07:49:54;;;;;;;3.90;1.20;;;13.70;99.90;;;;;;4920149;29;20035;-76
2022/07/27 07:52:21;;;;;;;3.03;1.10;;;13.80;99.90;;;;;;4920635;29;20050;-76
2022/07/27 07:54:48;;;;;;;4.90;1.23;;;13.70;99.90;;;;;;4937480;29;20099;-75
2022/07/27 07:57:15;;;;;;;5.55;1.35;;;13.60;99.90;;;;;;4937345;29;20151;-76
2022/07/27 07:59:43;;;;;;;4.88;1.27;;;13.60;99.90;;;;;;4920414;29;20106;-76
2022/07/27 08:02:10;;;;;;;4.90;1.40;;;13.60;99.90;;;;;;4937351;29;20023;-77
2022/07/27 08:04:37;;;;;;;5.03;1.45;;;13.50;99.90;;;;;;4937768;29;20488;-77
2022/07/27 08:07:05;;;;;;;5.50;1.45;;;13.40;99.90;;;;;;4920226;29;20179;-77
2022/07/27 08:09:32;;;;;;;4.63;1.40;;;13.40;99.90;;;;;;4937141;29;20024;-76
2022/07/27 08:11:59;;;;;;;4.78;1.48;;;13.30;99.90;;;;;;4920151;29;20028;-77
2022/07/27 08:14:27;;;;;;;5.22;2.38;;;13.20;99.90;;;;;;4937073;29;20024;-76
2022/07/27 08:16:54;;;;;;;4.15;1.70;;;13.20;99.90;;;;;;4936954;29;20039;-76
2022/07/27 08:19:21;;;;;;;4.47;1.60;;;13.30;99.90;;;;;;4919649;29;20024;-76
2022/07/27 08:21:49;;;;;;;4.75;1.92;;;13.20;99.90;;;;;;4936624;29;20058;-76
2022/07/27 08:24:16;;;;;;;5.15;1.83;;;13.10;99.90;;;;;;4919685;29;20079;-75
2022/07/27 08:26:43;;;;;;;3.75;1.60;;;13.00;99.90;;;;;;4937376;29;20024;-75
2022/07/27 08:29:10;;;;;;;6.38;2.60;;;13.00;99.90;;;;;;4937087;29;20031;-76
2022/07/27 08:31:39;;;;;;;5.10;1.75;;;13.00;99.90;;;;;;4919779;29;20032;-76
2022/07/27 08:34:06;;;;;;;3.97;1.40;;;13.00;99.90;;;;;;4919582;29;20024;-76
2022/07/27 08:36:33;;;;;;;5.03;1.98;;;13.20;99.90;;;;;;4919496;29;20055;-76
2022/07/27 08:39:07;;;;;;;3.67;1.27;;;13.20;99.90;;;;;;4919596;29;20087;-76
2022/07/27 08:41:38;;;;;;;6.25;2.10;;;13.30;99.90;;;;;;4904537;29;20493;-75
2022/07/27 08:44:07;;;;;;;5.05;1.40;;;13.50;99.90;;;;;;4936847;29;20408;-75
2022/07/27 08:46:37;;;;;;;4.13;1.20;;;13.50;99.90;;;;;;4936453;29;20046;-75
2022/07/27 08:49:04;;;;;;;5.47;1.60;;;13.40;99.90;;;;;;4904414;29;20122;-76
2022/07/27 08:51:35;;;;;;;6.90;2.00;;;13.30;99.90;;;;;;4936707;29;20035;-76
2022/07/27 08:54:02;;;;;;;5.85;2.03;;;13.30;99.90;;;;;;4919385;29;20480;-76
2022/07/27 08:56:30;;;;;;;4.43;1.80;;;13.20;99.90;;;;;;4936558;29;20499;-77
2022/07/27 08:58:57;;;;;;;5.55;1.70;;;13.10;99.90;;;;;;4936894;29;20020;-77
2022/07/27 09:01:25;;;;;;;5.43;1.92;;;13.00;99.90;;;;;;4936402;29;20071;-77
2022/07/27 09:03:52;;;;;;;5.20;1.75;;;13.20;99.90;;;;;;4919407;29;20024;-77
2022/07/27 09:06:42;;;;;;;4.40;1.98;;;13.30;99.90;;;;;;4936430;29;20020;-77
2022/07/27 09:09:11;;;;;;;4.10;1.90;;;13.10;99.90;;;;;;4919088;29;20027;-77
2022/07/27 09:11:38;;;;;;;5.07;1.70;;;13.10;99.90;;;;;;4918963;29;20083;-76
2022/07/27 09:14:10;;;;;;;5.72;2.05;;;13.00;99.90;;;;;;4936534;29;20456;-76
2022/07/27 09:16:38;;;;;;;4.35;1.52;;;12.90;99.90;;;;;;4918677;29;20396;-76
2022/07/27 09:19:10;;;;;;;6.63;2.53;;;12.90;99.90;;;;;;4903278;29;20056;-76
2022/07/27 09:21:37;;;;;;;6.60;2.72;;;12.90;99.90;;;;;;4918607;29;20390;-76
2022/07/27 09:24:10;;;;;;;5.03;1.55;;;12.90;99.90;;;;;;4935871;29;20044;-76
2022/07/27 09:26:39;;;;;;;6.03;1.88;;;12.80;99.90;;;;;;4936092;29;20027;-77
2022/07/27 09:29:12;;;;;;;4.53;1.50;;;12.90;99.90;;;;;;4936200;29;20163;-76
2022/07/27 09:31:45;;;;;;;4.07;1.48;;;13.00;99.90;;;;;;4936102;29;20031;-76
2022/07/27 09:34:26;;;;;;;3.65;1.25;;;12.90;99.90;;;;;;4936422;29;20043;-75
2022/07/27 09:36:56;;;;;;;3.67;1.38;;;13.00;99.90;;;;;;4905245;29;20044;-76
2022/07/27 09:39:25;;;;;;;3.53;1.15;;;13.00;99.90;;;;;;4936380;29;20473;-77
2022/07/27 09:42:00;;;;;;;2.58;1.00;;;13.00;99.90;;;;;;4918962;29;20024;-77
2022/07/27 09:44:43;;;;;;;3.38;1.02;;;13.00;99.90;;;;;;4936250;29;20076;-73
2022/07/27 09:47:25;;;;;;;3.35;1.13;;;13.00;99.90;;;;;;4936027;29;20028;-76
2022/07/27 09:50:13;;;;;;;3.50;1.02;;;12.90;99.90;;;;;;4918628;29;20027;-76
2022/07/27 09:52:41;;;;;;;2.17;0.90;;;12.80;99.90;;;;;;4905859;29;20057;-76
2022/07/27 09:55:09;;;;;;;3.65;1.15;;;12.70;99.90;;;;;;4919044;29;20039;-76
2022/07/27 09:57:57;;;;;;;2.30;0.90;;;12.70;99.90;;;;;;4935987;29;20024;-76
2022/07/27 10:00:26;;;;;;;1.88;0.88;;;12.60;99.90;;;;;;4918635;29;20023;-76
2022/07/27 10:02:54;;;;;;;3.10;0.93;;;12.60;99.90;;;;;;4918780;29;20075;-76
2022/07/27 10:05:21;;;;;;;1.70;0.70;;;12.60;99.90;;;;;;4936030;29;20024;-75
2022/07/27 10:07:51;;;;;;;3.08;1.00;;;12.60;99.90;;;;;;4918726;29;20118;-76
2022/07/27 10:10:19;;;;;;;2.03;0.55;;;12.50;99.90;;;;;;4903685;29;20182;-75
2022/07/27 10:12:51;;;;;;;2.30;0.80;;;12.50;99.90;;;;;;4935756;29;20492;-75
2022/07/27 10:15:19;;;;;;;1.48;0.70;;;12.40;99.90;;;;;;4935978;29;20501;-76
2022/07/27 10:17:48;;;;;;;2.97;0.88;;;12.40;99.90;;;;;;4918570;29;20038;-76
2022/07/27 10:20:17;;;;;;;1.65;0.60;;;12.40;99.90;;;;;;4935518;29;20030;-75
2022/07/27 10:22:55;;;;;;;3.33;0.60;;;12.40;99.90;;;;;;4935306;29;20099;-76
2022/07/27 10:25:24;;;;;;;1.98;0.50;;;12.40;99.90;;;;;;4935759;29;20028;-76
2022/07/27 10:28:17;;;;;;;1.38;0.60;;;12.40;99.90;;;;;;4918438;29;20123;-75
2022/07/27 10:30:44;;;;;;;2.72;0.82;;;12.30;99.90;;;;;;4918599;29;20059;-75
2022/07/27 10:33:47;;;;;;;2.30;0.60;;;12.20;99.90;;;;;;4920188;29;20024;-76
2022/07/27 10:36:45;;;;;;;1.67;0.60;;;12.20;99.90;;;;;;4921761;29;20543;-76
2022/07/27 10:39:32;;;;;;;1.83;0.47;;;12.20;99.90;;;;;;4933655;29;20032;-75
2022/07/27 10:42:29;;;;;;;2.40;0.52;;;12.20;99.90;;;;;;4939052;29;20504;-75
2022/07/27 10:44:58;;;;;;;2.03;0.55;;;12.10;99.90;;;;;;4938767;29;20544;-75
2022/07/27 10:47:37;;;;;;;1.45;0.50;;;12.10;99.90;;;;;;4921520;29;20548;-75
2022/07/27 10:50:16;;;;;;;2.08;0.50;;;12.10;99.90;;;;;;4938694;29;20020;-75
2022/07/27 10:52:46;;;;;;;1.30;0.52;;;12.00;99.90;;;;;;4921602;29;20059;-75
2022/07/27 10:55:33;;;;;;;2.47;0.50;;;12.00;99.90;;;;;;4938738;29;20042;-75
2022/07/27 10:58:10;;;;;;;1.52;0.50;;;12.00;99.90;;;;;;4921050;29;20023;-76
2022/07/27 11:00:50;;;;;;;2.63;0.65;;;11.90;99.90;;;;;;4921006;29;20477;-76
2022/07/27 11:03:22;;;;;;;1.85;0.40;;;11.90;99.90;;;;;;4920971;29;20044;-76
2022/07/27 11:06:04;;;;;;;2.15;0.40;;;11.80;99.90;;;;;;4920946;29;20032;-76
2022/07/27 11:08:37;;;;;;;1.45;0.55;;;11.90;99.90;;;;;;4920992;29;20567;-76
2022/07/27 11:11:07;;;;;;;1.23;0.43;;;11.80;99.90;;;;;;4920896;29;20099;-76
2022/07/27 11:13:35;;;;;;;2.05;0.50;;;11.80;99.90;;;;;;4938143;29;20484;-76
2022/07/27 11:16:08;;;;;;;1.92;0.55;;;11.80;99.90;;;;;;4938119;29;20054;-76
2022/07/27 11:18:38;;;;;;;1.13;0.40;;;11.80;99.90;;;;;;4938426;29;20030;-76
2022/07/27 11:21:27;;;;;;;1.70;0.50;;;11.80;99.90;;;;;;4921076;29;20024;-76
2022/07/27 11:24:02;;;;;;;2.22;0.70;;;11.80;99.90;;;;;;4937760;29;20055;-76
2022/07/27 11:26:37;;;;;;;0.73;0.30;;;11.80;99.90;;;;;;4920883;29;20023;-76
2022/07/27 11:29:10;;;;;;;1.88;0.50;;;11.80;99.90;;;;;;4938147;29;20027;-76
2022/07/27 11:31:40;;;;;;;1.17;0.43;;;11.80;99.90;;;;;;4921062;29;20042;-76
2022/07/27 11:34:07;;;;;;;1.48;0.30;;;11.80;99.90;;;;;;4938318;29;20507;-76
2022/07/27 11:36:49;;;;;;;1.38;0.50;;;11.80;99.90;;;;;;4921184;29;20060;-77
2022/07/27 11:39:26;;;;;;;1.67;0.50;;;11.70;99.90;;;;;;4938640;29;20534;-76
2022/07/27 11:42:00;;;;;;;1.48;0.50;;;11.60;99.90;;;;;;4921217;29;20031;-77
2022/07/27 11:44:29;;;;;;;1.33;0.40;;;11.50;99.90;;;;;;4920586;29;20023;-76
2022/07/27 11:46:57;;;;;;;1.58;0.70;;;11.50;99.90;;;;;;4920695;29;20121;-77
2022/07/27 11:49:29;;;;;;;1.33;0.70;;;11.50;99.90;;;;;;4937789;29;20075;-75
2022/07/27 11:52:02;;;;;;;1.52;0.50;;;11.50;99.90;;;;;;4937993;29;20383;-76
2022/07/27 11:54:40;;;;;;;0.52;0.32;;;11.40;99.90;;;;;;4937889;29;20416;-76
2022/07/27 11:57:11;;;;;;;1.15;0.60;;;11.40;99.90;;;;;;4937681;29;20031;-76
2022/07/27 11:59:40;;;;;;;2.05;0.85;;;11.30;99.90;;;;;;4920698;29;20119;-77
2022/07/27 12:02:18;;;;;;;2.25;0.50;;;11.30;99.90;;;;;;4921581;29;20163;-76
2022/07/27 12:04:50;;;;;;;3.80;0.60;;;11.30;99.90;;;;;;4920712;29;20027;-76
2022/07/27 12:07:20;;;;;;;0.93;0.50;;;11.20;99.90;;;;;;4937765;29;20050;-75
2022/07/27 12:09:53;;;;;;;0.40;0.30;;;11.20;99.90;;;;;;4937669;29;20035;-76
2022/07/27 12:12:23;;;;;;;1.15;0.50;;;11.30;99.90;;;;;;4920429;29;20062;-76
2022/07/27 12:15:01;;;;;;;0.88;0.50;;;11.30;99.90;;;;;;4920511;29;20378;-75
2022/07/27 12:17:38;;;;;;;2.97;0.40;;;11.30;99.90;;;;;;4937514;29;20075;-76
2022/07/27 12:20:05;;;;;;;1.65;0.40;;;11.30;99.90;;;;;;4937646;29;20019;-76
2022/07/27 12:22:46;;;;;;;1.20;0.40;;;11.30;99.90;;;;;;4937111;29;20119;-76
2022/07/27 12:25:22;;;;;;;1.30;0.65;;;11.30;99.90;;;;;;4937971;29;20472;-76
2022/07/27 12:27:57;;;;;;;1.63;0.73;;;11.30;99.90;;;;;;4937476;29;20111;-75
2022/07/27 12:30:46;;;;;;;1.67;0.68;;;11.30;99.90;;;;;;4937066;29;20035;-77
2022/07/27 12:33:25;;;;;;;1.23;0.45;;;11.30;99.90;;;;;;4920838;29;20028;-76
2022/07/27 12:35:53;;;;;;;1.58;0.50;;;11.30;99.90;;;;;;4919934;29;20047;-75
2022/07/27 12:38:20;;;;;;;2.65;0.45;;;11.20;99.90;;;;;;4919702;29;20556;-76
2022/07/27 12:40:57;;;;;;;1.05;0.35;;;11.20;99.90;;;;;;4920083;29;20036;-77
2022/07/27 12:43:25;;;;;;;1.55;0.50;;;11.10;99.90;;;;;;4919714;29;20067;-76
2022/07/27 12:45:54;;;;;;;2.55;0.43;;;11.10;99.90;;;;;;4919801;29;20114;-76
2022/07/27 12:48:24;;;;;;;1.65;0.60;;;11.10;99.90;;;;;;4919676;29;20365;-76
2022/07/27 12:51:06;;;;;;;2.25;0.80;;;11.00;99.90;;;;;;4936850;29;20015;-76
2022/07/27 12:53:36;;;;;;;1.33;0.40;;;11.00;99.90;;;;;;4936672;29;20369;-75
2022/07/27 12:56:06;;;;;;;1.33;0.40;;;11.00;99.90;;;;;;4935867;29;20032;-76
2022/07/27 12:58:36;;;;;;;2.40;0.45;;;10.90;99.90;;;;;;4936740;29;20027;-75
2022/07/27 13:01:04;;;;;;;1.15;0.47;;;10.90;99.90;;;;;;4919537;29;20484;-75
2022/07/27 13:03:32;;;;;;;1.35;0.40;;;10.90;99.90;;;;;;4936480;29;20023;-76